createdAt,value
2023-01-04T00:00:14.622Z,0
2023-01-04T00:02:27.730Z,0
2023-01-04T00:03:08.287Z,0
2023-01-04T00:03:49.668Z,0
2023-01-04T00:04:29.990Z,0
2023-01-04T00:07:53.475Z,0
2023-01-04T00:08:34.008Z,0
2023-01-04T00:09:14.524Z,0
2023-01-04T00:09:55.067Z,0
2023-01-04T00:10:35.723Z,0
2023-01-04T00:11:16.187Z,0
2023-01-04T00:11:56.864Z,0
2023-01-04T00:20:15.396Z,0
2023-01-04T00:20:58.472Z,0
2023-01-04T00:21:38.982Z,0
2023-01-04T00:22:19.416Z,0
2023-01-04T00:24:32.927Z,0
2023-01-04T00:25:13.504Z,0
2023-01-04T00:25:54.025Z,0
2023-01-04T00:26:34.608Z,0
2023-01-04T00:28:54.087Z,0
2023-01-04T00:29:29.101Z,0
2023-01-04T00:30:09.616Z,0
2023-01-04T00:30:50.188Z,0
2023-01-04T00:33:32.919Z,0
2023-01-04T00:34:13.481Z,0
2023-01-04T00:34:54.559Z,0
2023-01-04T00:35:45.559Z,0
2023-01-04T00:36:15.590Z,0
2023-01-04T00:36:56.111Z,0
2023-01-04T00:37:36.592Z,0
2023-01-04T00:38:17.215Z,0
2023-01-04T00:45:02.832Z,0
2023-01-04T00:45:43.459Z,0
2023-01-04T00:46:23.950Z,0
2023-01-04T00:47:04.566Z,0
2023-01-04T00:47:45.033Z,0
2023-01-04T00:48:25.588Z,0
2023-01-04T00:49:06.139Z,0
2023-01-04T00:49:46.758Z,0
2023-01-04T00:50:27.198Z,0
2023-01-04T00:59:00.440Z,0
2023-01-04T00:59:40.933Z,0
2023-01-04T01:00:21.432Z,0
2023-01-04T01:01:01.992Z,0
2023-01-04T01:04:36.487Z,0
2023-01-04T01:05:17.011Z,0
2023-01-04T01:05:57.546Z,0
2023-01-04T01:06:38.042Z,0
2023-01-04T01:09:06.611Z,0
2023-01-04T01:09:47.154Z,0
2023-01-04T01:10:27.783Z,0
2023-01-04T01:11:08.319Z,0
2023-01-04T01:13:11.407Z,0
2023-01-04T01:13:51.955Z,0
2023-01-04T01:14:32.500Z,0
2023-01-04T01:15:13.054Z,0
2023-01-04T01:15:53.674Z,0
2023-01-04T01:17:14.747Z,0
2023-01-04T01:17:55.230Z,0
2023-01-04T01:18:35.738Z,0
2023-01-04T01:22:25.146Z,0
2023-01-04T01:23:05.623Z,0
2023-01-04T01:23:46.124Z,0
2023-01-04T01:24:26.695Z,0
2023-01-04T01:28:29.944Z,0
2023-01-04T01:29:11.131Z,0
2023-01-04T01:29:51.703Z,0
2023-01-04T01:32:25.816Z,0
2023-01-04T01:33:06.308Z,0
2023-01-04T01:33:46.829Z,0
2023-01-04T01:34:27.426Z,0
2023-01-04T01:37:10.353Z,0
2023-01-04T01:37:50.895Z,0
2023-01-04T01:38:31.447Z,0
2023-01-04T01:39:12.022Z,0
2023-01-04T01:39:52.531Z,0
2023-01-04T01:40:33.166Z,0
2023-01-04T01:41:13.744Z,0
2023-01-04T01:41:54.305Z,0
2023-01-04T01:42:34.849Z,0
2023-01-04T01:43:15.388Z,0
2023-01-04T01:48:10.637Z,0
2023-01-04T01:48:51.123Z,0
2023-01-04T01:49:33.419Z,0
2023-01-04T01:50:13.969Z,0
2023-01-04T01:53:48.127Z,0
2023-01-04T01:54:28.635Z,0
2023-01-04T01:55:09.225Z,0
2023-01-04T01:55:49.786Z,0
2023-01-04T01:59:13.247Z,0
2023-01-04T01:59:53.806Z,0
2023-01-04T02:00:34.322Z,0
2023-01-04T02:01:15.028Z,0
2023-01-04T02:01:55.564Z,0
2023-01-04T02:02:36.287Z,0
2023-01-04T02:03:17.351Z,0
2023-01-04T02:03:57.719Z,0
2023-01-04T02:09:36.081Z,0
2023-01-04T02:10:21.995Z,0
2023-01-04T02:11:04.052Z,0
2023-01-04T02:13:43.531Z,0
2023-01-04T02:14:24.040Z,0
2023-01-04T02:15:04.543Z,0
2023-01-04T02:15:45.679Z,0
2023-01-04T02:18:00.181Z,0
2023-01-04T02:18:40.693Z,0
2023-01-04T02:19:21.223Z,0
2023-01-04T02:20:01.780Z,0
2023-01-04T02:24:17.075Z,0
2023-01-04T02:24:58.181Z,0
2023-01-04T02:25:38.762Z,0
2023-01-04T02:26:19.318Z,0
2023-01-04T02:28:37.919Z,0
2023-01-04T02:29:18.539Z,0
2023-01-04T02:29:59.043Z,0
2023-01-04T02:30:39.633Z,0
2023-01-04T02:34:02.932Z,0
2023-01-04T02:34:43.561Z,0
2023-01-04T02:35:24.919Z,0
2023-01-04T02:36:05.439Z,0
2023-01-04T02:36:46.056Z,0
2023-01-04T02:37:26.526Z,0
2023-01-04T02:38:07.060Z,0
2023-01-04T02:38:47.622Z,0
2023-01-04T02:44:12.601Z,0
2023-01-04T02:44:53.118Z,0
2023-01-04T02:45:33.661Z,0
2023-01-04T02:46:14.200Z,0
2023-01-04T02:46:54.800Z,0
2023-01-04T02:47:36.287Z,0
2023-01-04T02:48:17.482Z,0
2023-01-04T02:51:14.801Z,0
2023-01-04T02:51:57.151Z,0
2023-01-04T02:52:37.637Z,0
2023-01-04T02:53:20.032Z,0
2023-01-04T02:55:40.237Z,0
2023-01-04T02:56:20.736Z,0
2023-01-04T02:57:05.442Z,0
2023-01-04T02:57:41.790Z,0
2023-01-04T03:01:45.216Z,0
2023-01-04T03:02:25.878Z,0
2023-01-04T03:03:06.436Z,0
2023-01-04T03:03:46.814Z,0
2023-01-04T03:04:27.417Z,0
2023-01-04T03:05:07.919Z,0
2023-01-04T03:05:48.497Z,0
2023-01-04T03:06:28.972Z,0
2023-01-04T03:07:09.526Z,0
2023-01-04T03:13:15.109Z,0
2023-01-04T03:13:55.642Z,0
2023-01-04T03:14:36.196Z,0
2023-01-04T03:15:16.712Z,0
2023-01-04T03:15:57.346Z,0
2023-01-04T03:16:37.815Z,0
2023-01-04T03:17:18.268Z,0
2023-01-04T03:17:58.806Z,0
2023-01-04T03:18:39.370Z,0
2023-01-04T03:24:45.059Z,0
2023-01-04T03:25:25.579Z,0
2023-01-04T03:26:06.116Z,0
2023-01-04T03:26:46.621Z,0
2023-01-04T03:27:27.277Z,0
2023-01-04T03:28:07.767Z,0
2023-01-04T03:28:48.281Z,0
2023-01-04T03:29:28.788Z,0
2023-01-04T03:30:09.311Z,0
2023-01-04T03:39:07.696Z,0
2023-01-04T03:39:48.245Z,0
2023-01-04T03:40:28.801Z,0
2023-01-04T03:41:09.466Z,0
2023-01-04T03:45:12.558Z,0
2023-01-04T03:45:53.056Z,0
2023-01-04T03:46:34.450Z,0
2023-01-04T03:47:15.657Z,0
2023-01-04T03:47:56.822Z,0
2023-01-04T03:48:37.310Z,0
2023-01-04T03:53:22.441Z,0
2023-01-04T03:54:03.051Z,0
2023-01-04T03:54:43.506Z,0
2023-01-04T03:57:16.898Z,0
2023-01-04T03:57:57.496Z,0
2023-01-04T03:58:37.992Z,0
2023-01-04T03:59:18.517Z,0
2023-01-04T04:02:41.766Z,0
2023-01-04T04:03:22.349Z,0
2023-01-04T04:04:02.882Z,0
2023-01-04T04:04:43.314Z,0
2023-01-04T04:05:23.831Z,0
2023-01-04T04:06:04.915Z,0
2023-01-04T04:06:45.416Z,0
2023-01-04T04:09:23.614Z,0
2023-01-04T04:10:04.148Z,0
2023-01-04T04:10:44.683Z,0
2023-01-04T04:11:25.153Z,0
2023-01-04T04:15:28.285Z,0
2023-01-04T04:16:08.896Z,0
2023-01-04T04:16:49.433Z,0
2023-01-04T04:17:29.896Z,0
2023-01-04T04:18:10.411Z,0
2023-01-04T04:18:50.929Z,0
2023-01-04T04:19:32.127Z,0
2023-01-04T04:20:12.618Z,0
2023-01-04T04:20:53.158Z,0
2023-01-04T04:26:58.610Z,0
2023-01-04T04:27:39.115Z,0
2023-01-04T04:28:19.651Z,0
2023-01-04T04:29:00.218Z,0
2023-01-04T04:29:40.691Z,0
2023-01-04T04:30:21.245Z,0
2023-01-04T04:31:01.738Z,0
2023-01-04T04:31:42.389Z,0
2023-01-04T04:32:22.831Z,0
2023-01-04T04:37:48.513Z,0
2023-01-04T04:38:29.560Z,0
2023-01-04T04:41:08.015Z,0
2023-01-04T04:41:48.523Z,0
2023-01-04T04:42:29.049Z,0
2023-01-04T04:43:09.697Z,0
2023-01-04T04:48:46.338Z,0
2023-01-04T04:49:26.867Z,0
2023-01-04T04:50:07.393Z,0
2023-01-04T04:50:47.974Z,0
2023-01-04T04:53:44.093Z,0
2023-01-04T04:54:24.720Z,0
2023-01-04T04:55:06.264Z,0
2023-01-04T04:55:47.505Z,0
2023-01-04T04:56:30.669Z,0
2023-01-04T04:57:11.191Z,0
2023-01-04T04:59:24.254Z,0
2023-01-04T05:00:04.794Z,0
2023-01-04T05:00:45.326Z,0
2023-01-04T05:01:25.897Z,0
2023-01-04T05:02:50.452Z,0
2023-01-04T05:03:30.977Z,0
2023-01-04T05:04:11.479Z,0
2023-01-04T05:06:45.517Z,0
2023-01-04T05:07:26.900Z,0
2023-01-04T05:08:07.437Z,0
2023-01-04T05:08:48.919Z,0
2023-01-04T05:11:01.767Z,0
2023-01-04T05:11:42.913Z,0
2023-01-04T05:12:23.388Z,0
2023-01-04T05:13:04.618Z,0
2023-01-04T05:15:10.978Z,0
2023-01-04T05:15:51.499Z,0
2023-01-04T05:16:32.068Z,0
2023-01-04T05:17:12.532Z,0
2023-01-04T05:21:29.339Z,0
2023-01-04T05:22:09.870Z,0
2023-01-04T05:22:50.396Z,0
2023-01-04T05:23:31.009Z,0
2023-01-04T05:27:34.256Z,0
2023-01-04T05:28:14.805Z,0
2023-01-04T05:28:55.304Z,0
2023-01-04T05:29:35.798Z,0
2023-01-04T05:30:16.391Z,0
2023-01-04T05:30:56.920Z,0
2023-01-04T05:31:37.449Z,0
2023-01-04T05:32:17.997Z,0
2023-01-04T05:32:58.508Z,0
2023-01-04T05:39:15.531Z,0
2023-01-04T05:39:56.087Z,0
2023-01-04T05:40:36.588Z,0
2023-01-04T05:41:17.240Z,0
2023-01-04T05:43:59.860Z,0
2023-01-04T05:44:42.029Z,0
2023-01-04T05:45:22.617Z,0
2023-01-04T05:46:03.115Z,0
2023-01-04T05:46:43.694Z,0
2023-01-04T05:47:24.455Z,0
2023-01-04T05:56:03.120Z,0
2023-01-04T05:56:43.693Z,0
2023-01-04T05:57:24.248Z,0
2023-01-04T05:58:05.598Z,0
2023-01-04T06:00:47.918Z,0
2023-01-04T06:03:26.130Z,0
2023-01-04T06:04:08.757Z,0
2023-01-04T06:04:53.078Z,0
2023-01-04T06:05:29.713Z,0
2023-01-04T06:08:23.124Z,0
2023-01-04T06:09:03.698Z,0
2023-01-04T06:09:44.216Z,0
2023-01-04T06:10:24.764Z,0
2023-01-04T06:13:18.954Z,0
2023-01-04T06:13:59.579Z,0
2023-01-04T06:14:40.165Z,0
2023-01-04T06:15:21.633Z,0
2023-01-04T06:18:07.521Z,0
2023-01-04T06:18:44.589Z,0
2023-01-04T06:19:25.133Z,0
2023-01-04T06:20:05.901Z,0
2023-01-04T06:20:46.445Z,0
2023-01-04T06:21:27.004Z,0
2023-01-04T06:22:07.556Z,0
2023-01-04T06:22:48.075Z,0
2023-01-04T06:25:56.978Z,0
2023-01-04T06:26:37.546Z,0
2023-01-04T06:27:18.114Z,0
2023-01-04T06:27:58.621Z,0
2023-01-04T06:31:17.954Z,0
2023-01-04T06:31:58.356Z,0
2023-01-04T06:32:38.856Z,0
2023-01-04T06:33:19.360Z,0
2023-01-04T06:37:22.598Z,0
2023-01-04T06:38:03.141Z,0
2023-01-04T06:38:43.659Z,0
2023-01-04T06:39:24.189Z,0
2023-01-04T06:40:04.763Z,0
2023-01-04T06:40:45.246Z,0
2023-01-04T06:41:25.760Z,0
2023-01-04T06:42:07.259Z,0
2023-01-04T06:42:46.840Z,0
2023-01-04T06:45:00.184Z,0
2023-01-04T06:45:40.697Z,0
2023-01-04T06:46:21.284Z,0
2023-01-04T06:47:01.752Z,0
2023-01-04T06:50:24.638Z,0
2023-01-04T06:51:05.115Z,0
2023-01-04T06:51:45.622Z,0
2023-01-04T06:52:26.167Z,0
2023-01-04T06:53:06.690Z,0
2023-01-04T06:53:47.135Z,0
2023-01-04T06:54:27.652Z,0
2023-01-04T06:55:08.093Z,0
2023-01-04T06:55:48.607Z,0
2023-01-04T06:56:29.121Z,0
2023-01-04T07:03:16.100Z,0
2023-01-04T07:03:55.292Z,0
2023-01-04T07:06:33.437Z,0
2023-01-04T07:07:13.981Z,0
2023-01-04T07:07:54.495Z,0
2023-01-04T07:08:35.011Z,0
2023-01-04T07:11:29.096Z,0
2023-01-04T07:12:09.627Z,0
2023-01-04T07:12:50.129Z,0
2023-01-04T07:13:30.656Z,0
2023-01-04T07:17:34.085Z,0
2023-01-04T07:18:14.592Z,0
2023-01-04T07:18:55.106Z,0
2023-01-04T07:19:35.632Z,0
2023-01-04T07:20:16.206Z,0
2023-01-04T07:20:56.757Z,0
2023-01-04T07:21:37.363Z,0
2023-01-04T07:22:18.666Z,0
2023-01-04T07:29:04.232Z,0
2023-01-04T07:31:42.711Z,0
2023-01-04T07:32:23.220Z,0
2023-01-04T07:33:03.802Z,0
2023-01-04T07:33:45.884Z,0
2023-01-04T07:36:06.832Z,5
2023-01-04T07:36:47.408Z,5
2023-01-04T07:37:27.903Z,5
2023-01-04T07:38:08.501Z,5
2023-01-04T07:40:11.567Z,5
2023-01-04T07:40:55.721Z,5
2023-01-04T07:41:32.735Z,5
2023-01-04T07:42:13.292Z,5
2023-01-04T07:42:53.776Z,5
2023-01-04T07:43:34.543Z,5
2023-01-04T07:44:15.083Z,5
2023-01-04T07:44:55.630Z,5
2023-01-04T07:45:36.135Z,5
2023-01-04T07:50:21.739Z,10
2023-01-04T07:51:02.287Z,10
2023-01-04T07:51:42.782Z,10
2023-01-04T07:52:23.335Z,10
2023-01-04T07:53:04.639Z,10
2023-01-04T07:53:45.153Z,10
2023-01-04T07:54:25.699Z,10
2023-01-04T07:55:06.302Z,10
2023-01-04T08:00:43.039Z,10
2023-01-04T08:01:24.266Z,10
2023-01-04T08:02:04.720Z,10
2023-01-04T08:02:45.320Z,10
2023-01-04T08:05:27.393Z,15
2023-01-04T08:06:07.886Z,15
2023-01-04T08:08:46.380Z,15
2023-01-04T08:09:26.907Z,15
2023-01-04T08:10:07.425Z,15
2023-01-04T08:10:47.942Z,15
2023-01-04T08:14:11.111Z,15
2023-01-04T08:14:51.639Z,15
2023-01-04T08:15:32.180Z,15
2023-01-04T08:16:12.743Z,20
2023-01-04T08:16:53.254Z,20
2023-01-04T08:17:33.761Z,20
2023-01-04T08:18:14.291Z,20
2023-01-04T08:20:46.223Z,25
2023-01-04T08:21:26.737Z,30
2023-01-04T08:22:16.638Z,30
2023-01-04T08:23:02.618Z,30
2023-01-04T08:25:16.161Z,40
2023-01-04T08:25:56.673Z,45
2023-01-04T08:26:37.265Z,45
2023-01-04T08:27:17.915Z,45
2023-01-04T08:29:46.588Z,45
2023-01-04T08:30:27.196Z,45
2023-01-04T08:31:08.245Z,50
2023-01-04T08:31:48.815Z,50
2023-01-04T08:34:31.948Z,50
2023-01-04T08:35:12.443Z,50
2023-01-04T08:35:52.980Z,50
2023-01-04T08:36:33.516Z,45
2023-01-04T08:37:14.115Z,45
2023-01-04T08:37:54.608Z,45
2023-01-04T08:39:15.769Z,45
2023-01-04T08:46:01.323Z,40
2023-01-04T08:46:41.972Z,40
2023-01-04T08:47:22.471Z,45
2023-01-04T08:48:02.964Z,45
2023-01-04T08:48:43.758Z,45
2023-01-04T08:49:24.068Z,45
2023-01-04T08:50:10.184Z,45
2023-01-04T08:50:45.169Z,45
2023-01-04T08:51:25.993Z,45
2023-01-04T08:56:51.169Z,60
2023-01-04T08:57:31.713Z,60
2023-01-04T08:58:13.274Z,65
2023-01-04T08:58:53.867Z,60
2023-01-04T08:59:34.434Z,60
2023-01-04T09:00:14.956Z,60
2023-01-04T09:00:55.503Z,60
2023-01-04T09:03:55.043Z,65
2023-01-04T09:04:35.650Z,65
2023-01-04T09:05:22.146Z,65
2023-01-04T09:05:56.750Z,65
2023-01-04T09:10:00.033Z,70
2023-01-04T09:10:40.568Z,70
2023-01-04T09:11:21.103Z,75
2023-01-04T09:12:01.630Z,75
2023-01-04T09:12:42.155Z,75
2023-01-04T09:13:22.694Z,75
2023-01-04T09:14:07.702Z,75
2023-01-04T09:14:43.762Z,80
2023-01-04T09:15:24.275Z,85
2023-01-04T09:19:01.665Z,70
2023-01-04T09:19:43.113Z,70
2023-01-04T09:20:24.362Z,70
2023-01-04T09:21:04.881Z,70
2023-01-04T09:23:17.913Z,65
2023-01-04T09:23:58.417Z,70
2023-01-04T09:24:39.598Z,70
2023-01-04T09:25:20.107Z,70
2023-01-04T09:28:42.746Z,70
2023-01-04T09:29:23.296Z,70
2023-01-04T09:30:03.782Z,70
2023-01-04T09:30:44.330Z,70
2023-01-04T09:31:24.934Z,70
2023-01-04T09:32:05.396Z,70
2023-01-04T09:32:46.158Z,70
2023-01-04T09:33:41.520Z,70
2023-01-04T09:34:16.850Z,70
2023-01-04T09:38:22.576Z,75
2023-01-04T09:39:03.554Z,75
2023-01-04T09:39:44.096Z,75
2023-01-04T09:40:24.680Z,75
2023-01-04T09:42:37.887Z,85
2023-01-04T09:43:20.695Z,85
2023-01-04T09:43:58.874Z,90
2023-01-04T09:45:21.762Z,90
2023-01-04T09:48:02.846Z,85
2023-01-04T09:48:43.349Z,90
2023-01-04T09:49:23.866Z,100
2023-01-04T09:50:04.441Z,100
2023-01-04T09:50:44.931Z,95
2023-01-04T09:51:25.479Z,90
2023-01-04T09:52:05.942Z,80
2023-01-04T09:52:46.495Z,75
2023-01-04T09:53:27.065Z,75
2023-01-04T09:59:32.759Z,85
2023-01-04T10:00:13.297Z,85
2023-01-04T10:00:53.844Z,90
2023-01-04T10:01:35.696Z,90
2023-01-04T10:02:16.137Z,90
2023-01-04T10:02:57.522Z,95
2023-01-04T10:09:03.150Z,135
2023-01-04T10:09:43.679Z,135
2023-01-04T10:10:24.232Z,130
2023-01-04T10:11:04.774Z,125
2023-01-04T10:11:45.619Z,125
2023-01-04T10:12:26.144Z,125
2023-01-04T10:15:04.624Z,140
2023-01-04T10:15:45.157Z,140
2023-01-04T10:16:44.575Z,135
2023-01-04T10:17:15.239Z,130
2023-01-04T10:21:26.634Z,90
2023-01-04T10:21:49.920Z,80
2023-01-04T10:22:30.388Z,80
2023-01-04T10:23:10.872Z,85
2023-01-04T10:23:51.418Z,85
2023-01-04T10:24:31.959Z,75
2023-01-04T10:25:12.543Z,75
2023-01-04T10:25:53.080Z,70
2023-01-04T10:28:31.558Z,75
2023-01-04T10:29:12.106Z,75
2023-01-04T10:29:52.652Z,80
2023-01-04T10:30:33.158Z,80
2023-01-04T10:33:26.704Z,80
2023-01-04T10:34:07.225Z,80
2023-01-04T10:34:47.746Z,80
2023-01-04T10:35:28.268Z,80
2023-01-04T10:39:32.910Z,110
2023-01-04T10:40:11.970Z,115
2023-01-04T10:42:50.419Z,115
2023-01-04T10:43:30.982Z,110
2023-01-04T10:44:14.240Z,105
2023-01-04T10:44:53.003Z,100
2023-01-04T10:47:35.125Z,90
2023-01-04T10:48:15.703Z,95
2023-01-04T10:48:56.925Z,90
2023-01-04T10:49:37.428Z,95
2023-01-04T10:50:17.952Z,95
2023-01-04T10:51:02.293Z,100
2023-01-04T10:51:39.014Z,100
2023-01-04T10:52:19.589Z,95
2023-01-04T10:58:25.344Z,85
2023-01-04T10:59:05.890Z,80
2023-01-04T10:59:46.459Z,75
2023-01-04T11:00:26.937Z,75
2023-01-04T11:01:07.530Z,75
2023-01-04T11:03:45.994Z,85
2023-01-04T11:04:26.443Z,85
2023-01-04T11:05:06.960Z,80
2023-01-04T11:05:47.488Z,80
2023-01-04T11:09:13.314Z,95
2023-01-04T11:09:52.369Z,105
2023-01-04T11:10:32.903Z,105
2023-01-04T11:11:13.447Z,95
2023-01-04T11:11:53.940Z,90
2023-01-04T11:12:35.383Z,85
2023-01-04T11:19:36.179Z,70
2023-01-04T11:20:18.684Z,70
2023-01-04T11:21:01.003Z,65
2023-01-04T11:23:45.478Z,60
2023-01-04T11:24:33.841Z,55
2023-01-04T11:25:34.281Z,55
2023-01-04T11:27:27.139Z,60
2023-01-04T11:28:06.813Z,60
2023-01-04T11:28:47.314Z,65
2023-01-04T11:29:27.831Z,65
2023-01-04T11:32:10.683Z,75
2023-01-04T11:32:51.136Z,75
2023-01-04T11:33:31.710Z,80
2023-01-04T11:34:12.231Z,85
2023-01-04T11:34:52.767Z,85
2023-01-04T11:35:36.445Z,95
2023-01-04T11:36:13.849Z,105
2023-01-04T11:36:54.387Z,110
2023-01-04T11:37:34.951Z,105
2023-01-04T11:44:20.336Z,105
2023-01-04T11:45:00.846Z,105
2023-01-04T11:45:41.382Z,100
2023-01-04T11:46:21.984Z,95
2023-01-04T11:49:00.103Z,95
2023-01-04T11:49:40.619Z,90
2023-01-04T11:50:21.150Z,80
2023-01-04T11:51:01.695Z,85
2023-01-04T11:55:04.904Z,90
2023-01-04T11:55:45.452Z,90
2023-01-04T11:56:26.959Z,90
2023-01-04T11:57:11.571Z,95
2023-01-04T11:57:48.969Z,100
2023-01-04T11:58:29.492Z,95
2023-01-04T12:01:23.998Z,95
2023-01-04T12:02:04.618Z,85
2023-01-04T12:03:02.269Z,80
2023-01-04T12:03:26.554Z,90
2023-01-04T12:05:30.269Z,100
2023-01-04T12:06:09.302Z,95
2023-01-04T12:06:49.829Z,95
2023-01-04T12:07:30.590Z,100
2023-01-04T12:08:11.034Z,115
2023-01-04T12:08:51.617Z,125
2023-01-04T12:09:32.146Z,130
2023-01-04T12:10:12.688Z,120
2023-01-04T12:10:53.253Z,115
2023-01-04T12:16:18.598Z,155
2023-01-04T12:16:59.175Z,160
2023-01-04T12:17:43.090Z,145
2023-01-04T12:18:20.757Z,150
2023-01-04T12:19:01.290Z,135
2023-01-04T12:19:41.816Z,135
2023-01-04T12:20:22.352Z,135
2023-01-04T12:21:02.921Z,120
2023-01-04T12:21:43.450Z,115
2023-01-04T12:28:42.107Z,165
2023-01-04T12:29:22.589Z,165
2023-01-04T12:30:03.165Z,160
2023-01-04T12:30:43.710Z,160
2023-01-04T12:33:11.984Z,155
2023-01-04T12:33:52.563Z,150
2023-01-04T12:34:33.127Z,155
2023-01-04T12:35:13.652Z,165
2023-01-04T12:37:56.676Z,175
2023-01-04T12:38:37.314Z,175
2023-01-04T12:39:17.885Z,180
2023-01-04T12:39:58.464Z,175
2023-01-04T12:40:39.584Z,185
2023-01-04T12:43:18.649Z,170
2023-01-04T12:43:59.203Z,165
2023-01-04T12:44:39.766Z,165
2023-01-04T12:45:20.300Z,160
2023-01-04T12:49:23.586Z,165
2023-01-04T12:52:29.288Z,160
2023-01-04T12:53:02.214Z,155
2023-01-04T12:53:31.625Z,155
2023-01-04T12:54:04.879Z,155
2023-01-04T12:55:26.740Z,155
2023-01-04T12:56:07.260Z,155
2023-01-04T12:56:47.797Z,155
2023-01-04T12:57:30.708Z,155
2023-01-04T12:58:08.837Z,150
2023-01-04T12:59:30.800Z,145
2023-01-04T13:00:11.281Z,150
2023-01-04T13:06:17.259Z,135
2023-01-04T13:06:57.766Z,135
2023-01-04T13:09:36.393Z,145
2023-01-04T13:10:17.126Z,150
2023-01-04T13:10:57.753Z,150
2023-01-04T13:11:38.356Z,150
2023-01-04T13:13:40.989Z,150
2023-01-04T13:14:21.607Z,150
2023-01-04T13:15:02.256Z,150
2023-01-04T13:15:43.567Z,150
2023-01-04T13:16:24.250Z,150
2023-01-04T13:17:04.867Z,150
2023-01-04T13:17:45.365Z,150
2023-01-04T13:18:25.925Z,150
2023-01-04T13:23:22.318Z,150
2023-01-04T13:24:03.508Z,150
2023-01-04T13:24:44.076Z,150
2023-01-04T13:27:24.155Z,145
2023-01-04T13:28:04.748Z,150
2023-01-04T13:28:45.392Z,145
2023-01-04T13:29:25.993Z,145
2023-01-04T13:32:09.075Z,140
2023-01-04T13:33:24.087Z,140
2023-01-04T13:33:30.508Z,135
2023-01-04T13:34:10.881Z,135
2023-01-04T13:34:51.538Z,135
2023-01-04T13:35:32.077Z,135
2023-01-04T13:36:12.637Z,135
2023-01-04T13:36:53.245Z,135
2023-01-04T13:42:59.132Z,125
2023-01-04T13:43:39.822Z,125
2023-01-04T13:44:20.394Z,125
2023-01-04T13:46:59.132Z,120
2023-01-04T13:47:39.538Z,115
2023-01-04T13:48:20.132Z,115
2023-01-04T13:49:00.649Z,115
2023-01-04T13:51:39.107Z,115
2023-01-04T13:52:46.533Z,115
2023-01-04T13:53:06.611Z,115
2023-01-04T13:55:40.931Z,105
2023-01-04T13:56:22.086Z,105
2023-01-04T13:57:05.427Z,100
2023-01-04T13:59:43.639Z,95
2023-01-04T14:00:24.232Z,95
2023-01-04T14:01:04.802Z,95
2023-01-04T14:01:45.398Z,90
2023-01-04T14:05:48.558Z,75
2023-01-04T14:06:29.057Z,75
2023-01-04T14:07:09.696Z,75
2023-01-04T14:07:50.237Z,75
2023-01-04T14:10:05.128Z,70
2023-01-04T14:10:45.659Z,65
2023-01-04T14:11:26.968Z,65
2023-01-04T14:14:05.493Z,60
2023-01-04T14:14:46.031Z,60
2023-01-04T14:15:26.577Z,60
2023-01-04T14:16:07.126Z,60
2023-01-04T14:19:31.492Z,55
2023-01-04T14:20:12.000Z,50
2023-01-04T14:20:52.509Z,50
2023-01-04T14:21:33.009Z,50
2023-01-04T14:22:13.516Z,50
2023-01-04T14:22:54.023Z,50
2023-01-04T14:23:34.531Z,55
2023-01-04T14:24:18.665Z,55
2023-01-04T14:26:43.481Z,60
2023-01-04T14:27:24.193Z,65
2023-01-04T14:28:05.401Z,65
2023-01-04T14:28:49.765Z,65
2023-01-04T14:30:10.541Z,65
2023-01-04T14:30:51.147Z,65
2023-01-04T14:31:31.717Z,65
2023-01-04T14:32:12.144Z,70
2023-01-04T14:32:52.638Z,70
2023-01-04T14:38:19.848Z,65
2023-01-04T14:39:00.416Z,65
2023-01-04T14:41:18.645Z,60
2023-01-04T14:41:59.319Z,60
2023-01-04T14:42:41.139Z,60
2023-01-04T14:43:21.725Z,55
2023-01-04T14:45:49.808Z,50
2023-01-04T14:46:30.341Z,45
2023-01-04T14:47:10.962Z,45
2023-01-04T14:47:52.307Z,45
2023-01-04T14:50:21.171Z,45
2023-01-04T14:51:03.520Z,45
2023-01-04T14:51:44.271Z,45
2023-01-04T14:52:24.811Z,45
2023-01-04T14:53:06.169Z,45
2023-01-04T14:53:46.715Z,40
2023-01-04T14:54:27.218Z,40
2023-01-04T14:55:07.795Z,40
2023-01-04T14:57:20.820Z,40
2023-01-04T14:58:01.375Z,40
2023-01-04T14:58:42.579Z,35
2023-01-04T14:59:24.337Z,35
2023-01-04T15:00:46.398Z,35
2023-01-04T15:03:25.628Z,30
2023-01-04T15:04:05.999Z,30
2023-01-04T15:04:46.485Z,30
2023-01-04T15:05:28.053Z,30
2023-01-04T15:07:55.478Z,30
2023-01-04T15:08:36.010Z,25
2023-01-04T15:09:17.395Z,25
2023-01-04T15:09:57.943Z,25
2023-01-04T15:13:39.340Z,20
2023-01-04T15:14:15.263Z,20
2023-01-04T15:14:55.715Z,20
2023-01-04T15:15:36.268Z,20
2023-01-04T15:19:39.266Z,15
2023-01-04T15:20:19.797Z,15
2023-01-04T15:21:00.347Z,15
2023-01-04T15:21:41.782Z,15
2023-01-04T15:23:59.104Z,15
2023-01-04T15:24:39.666Z,15
2023-01-04T15:25:20.137Z,10
2023-01-04T15:26:00.700Z,10
2023-01-04T15:30:03.809Z,10
2023-01-04T15:30:44.315Z,10
2023-01-04T15:31:30.178Z,5
2023-01-04T15:32:06.264Z,5
2023-01-04T15:32:46.734Z,5
2023-01-04T15:33:28.168Z,5
2023-01-04T15:34:08.834Z,5
2023-01-04T15:36:36.757Z,5
2023-01-04T15:37:23.493Z,5
2023-01-04T15:37:57.867Z,5
2023-01-04T15:38:38.391Z,5
2023-01-04T15:43:36.338Z,0
2023-01-04T15:44:15.598Z,0
2023-01-04T15:44:56.090Z,0
2023-01-04T15:45:36.595Z,0
2023-01-04T15:48:59.688Z,0
2023-01-04T15:49:40.187Z,0
2023-01-04T15:50:20.707Z,0
2023-01-04T15:51:01.294Z,0
2023-01-04T15:51:41.840Z,0
2023-01-04T15:52:22.342Z,0
2023-01-04T15:53:02.850Z,0
2023-01-04T15:53:43.365Z,0
2023-01-04T15:54:23.836Z,0
2023-01-04T15:55:04.352Z,0
2023-01-04T16:02:30.312Z,0
2023-01-04T16:03:10.685Z,0
2023-01-04T16:03:53.830Z,0
2023-01-04T16:06:05.938Z,0
2023-01-04T16:06:46.472Z,0
2023-01-04T16:07:31.129Z,0
2023-01-04T16:08:08.133Z,0
2023-01-04T16:10:11.405Z,0
2023-01-04T16:10:51.902Z,0
2023-01-04T16:11:33.209Z,0
2023-01-04T16:12:13.755Z,0
2023-01-04T16:16:20.750Z,0
2023-01-04T16:17:01.228Z,0
2023-01-04T16:17:41.716Z,0
2023-01-04T16:18:26.339Z,0
2023-01-04T16:19:03.717Z,0
2023-01-04T16:21:36.890Z,0
2023-01-04T16:22:19.617Z,0
2023-01-04T16:25:10.216Z,0
2023-01-04T16:25:41.075Z,0
2023-01-04T16:26:21.574Z,0
2023-01-04T16:27:02.128Z,0
2023-01-04T16:31:05.382Z,0
2023-01-04T16:31:46.003Z,0
2023-01-04T16:32:26.488Z,0
2023-01-04T16:33:07.004Z,0
2023-01-04T16:33:48.388Z,0
2023-01-04T16:34:28.943Z,0
2023-01-04T16:35:09.473Z,0
2023-01-04T16:35:54.046Z,0
2023-01-04T16:42:35.439Z,0
2023-01-04T16:43:15.991Z,0
2023-01-04T16:43:56.564Z,0
2023-01-04T16:44:37.088Z,0
2023-01-04T16:45:17.620Z,0
2023-01-04T16:45:58.130Z,0
2023-01-04T16:46:38.703Z,0
2023-01-04T16:47:19.300Z,0
2023-01-04T16:47:59.746Z,0
2023-01-04T16:54:45.195Z,0
2023-01-04T16:55:25.736Z,0
2023-01-04T16:56:06.259Z,0
2023-01-04T16:56:46.827Z,0
2023-01-04T16:57:27.347Z,0
2023-01-04T16:58:07.879Z,0
2023-01-04T16:58:48.488Z,0
2023-01-04T16:59:28.994Z,0
2023-01-04T17:00:09.530Z,0
2023-01-04T17:00:50.113Z,0
2023-01-04T17:06:01.277Z,0
2023-01-04T17:06:41.800Z,0
2023-01-04T17:07:22.328Z,0
2023-01-04T17:08:02.874Z,0
2023-01-04T17:12:47.374Z,0
2023-01-04T17:13:18.467Z,0
2023-01-04T17:13:59.615Z,0
2023-01-04T17:14:40.132Z,0
2023-01-04T17:18:02.846Z,0
2023-01-04T17:18:43.361Z,0
2023-01-04T17:19:23.876Z,0
2023-01-04T17:20:04.404Z,0
2023-01-04T17:20:44.916Z,0
2023-01-04T17:23:23.690Z,0
2023-01-04T17:24:04.373Z,0
2023-01-04T17:24:44.892Z,0
2023-01-04T17:25:25.377Z,0
2023-01-04T17:28:48.390Z,0
2023-01-04T17:29:28.990Z,0
2023-01-04T17:30:09.632Z,0
2023-01-04T17:32:39.630Z,0
2023-01-04T17:33:20.163Z,0
2023-01-04T17:34:00.765Z,0
2023-01-04T17:34:41.251Z,0
2023-01-04T17:36:04.770Z,0
2023-01-04T17:36:45.985Z,0
2023-01-04T17:37:26.493Z,0
2023-01-04T17:38:06.983Z,0
2023-01-04T17:38:47.968Z,0
2023-01-04T17:39:28.490Z,0
2023-01-04T17:45:04.754Z,0
2023-01-04T17:45:45.396Z,0
2023-01-04T17:46:25.940Z,0
2023-01-04T17:47:06.393Z,0
2023-01-04T17:49:30.761Z,0
2023-01-04T17:50:06.107Z,0
2023-01-04T17:50:47.264Z,0
2023-01-04T17:53:25.686Z,0
2023-01-04T17:54:06.232Z,0
2023-01-04T17:54:46.780Z,0
2023-01-04T17:55:27.245Z,0
2023-01-04T17:58:49.290Z,0
2023-01-04T17:59:31.476Z,0
2023-01-04T18:00:14.004Z,0
2023-01-04T18:00:54.575Z,0
2023-01-04T18:01:36.153Z,0
2023-01-04T18:02:16.777Z,0
2023-01-04T18:02:57.291Z,0
2023-01-04T18:03:39.023Z,0
2023-01-04T18:04:18.331Z,0
2023-01-04T18:04:58.840Z,0
2023-01-04T18:10:11.314Z,0
2023-01-04T18:11:06.560Z,0
2023-01-04T18:11:31.516Z,0
2023-01-04T18:12:12.812Z,0
2023-01-04T18:13:36.098Z,0
2023-01-04T18:14:16.841Z,0
2023-01-04T18:15:01.784Z,0
2023-01-04T18:18:25.153Z,0
2023-01-04T18:19:06.530Z,0
2023-01-04T18:19:48.149Z,0
2023-01-04T18:20:28.656Z,0
2023-01-04T18:21:14.659Z,0
2023-01-04T18:21:49.780Z,0